Latest Weather Observations for Merimbula

IDN60801

Issued at 6:32 am EST Sunday 30 August 2015 (issued every 30 minutes, with the page automatically refreshed every 10 minutes)

About weather observations | Map of weather stations | Latest weather observations for NSW | Other Formats
Station Details ID: 069147 Name: MERIMBULA AIRPORT AWS Lat: -36.91 Lon: 149.90 Height: 1.5 m
Data from the previous 72 hours. | See also: Recent months at Merimbula
Date/Time
EST
Temp
°C
App
Temp
°C
Dew
Point
Rel
Hum
%
Delta-T
°C
Wind Press
QNH
hPa
Press
MSL
hPa
Rain
since 9 am
mm
Dir
 
Spd
km/h
Gust
km/h
Spd
kts
Gust
kts
30/06:30am 10.2 6.6 5.0 70 2.3 WSW 13 24 7 13 1019.5 1019.5 0.0
30/06:00am 10.5 6.5 5.1 69 2.4 WSW 15 22 8 12 1019.4 1019.4 0.0
30/05:30am 10.6 6.3 5.2 69 2.5 WSW 17 30 9 16 1019.1 1019.1 0.0
30/05:00am 10.5 6.6 5.3 70 2.4 WSW 15 28 8 15 1019.3 1019.3 0.0
30/04:30am 10.5 6.6 5.3 70 2.4 WSW 15 30 8 16 1019.3 1019.3 0.0
30/04:00am 10.5 6.2 5.1 69 2.4 SW 17 26 9 14 1019.2 1019.2 0.0
30/03:30am 10.2 7.0 5.2 71 2.3 W 11 20 6 11 1019.3 1019.3 0.0
30/03:00am 10.2 6.7 5.4 72 2.2 WSW 13 20 7 11 1019.4 1019.4 0.0
30/02:30am 9.7 6.1 5.1 73 2.1 W 13 20 7 11 1019.7 1019.7 0.0
30/02:00am 10.2 6.2 5.0 70 2.3 WSW 15 22 8 12 1019.9 1019.9 0.0
30/01:30am 10.3 5.9 4.9 69 2.4 WSW 17 26 9 14 1020.2 1020.2 0.0
30/01:00am 10.5 5.7 4.9 68 2.5 WSW 19 30 10 16 1020.4 1020.4 0.0
30/12:30am 10.7 5.7 4.8 67 2.7 WSW 20 33 11 18 1020.5 1020.5 0.0
30/12:00am 10.6 6.2 4.7 67 2.6 WSW 17 24 9 13 1020.4 1020.4 0.0
 
Date/Time
EST
Temp
°C
App
Temp
°C
Dew
Point
Rel
Hum
%
Delta-T
°C
Wind Press
QNH
hPa
Press
MSL
hPa
Rain
since 9 am
mm
Dir
 
Spd
km/h
Gust
km/h
Spd
kts
Gust
kts
29/11:30pm 10.9 6.5 4.8 66 2.8 WSW 17 30 9 16 1020.3 1020.3 0.0
29/11:00pm 10.8 7.1 4.5 65 2.8 SW 13 32 7 17 1020.3 1020.3 0.0
29/10:30pm 10.9 7.2 4.4 64 2.9 WSW 13 28 7 15 1020.0 1020.0 0.0
29/10:00pm 10.8 7.4 4.0 63 3.0 W 11 19 6 10 1020.1 1020.1 0.0
29/09:30pm 10.6 6.8 3.9 63 3.0 WSW 13 19 7 10 1020.0 1020.0 0.0
29/09:00pm 11.0 6.5 4.0 62 3.1 WSW 17 28 9 15 1020.0 1020.0 0.0
29/08:30pm 10.7 7.0 4.2 64 2.9 WNW 13 20 7 11 1019.9 1019.9 0.0
29/08:00pm 10.9 6.7 3.9 62 3.1 W 15 24 8 13 1019.6 1019.6 0.0
29/07:30pm 11.1 6.6 4.1 62 3.1 W 17 26 9 14 1019.5 1019.5 0.0
29/07:00pm 11.2 6.7 4.4 63 3.0 W 17 24 9 13 1019.5 1019.5 0.0
29/06:30pm 11.0 8.0 4.2 63 3.0 WSW 9 20 5 11 1019.3 1019.3 0.0
29/06:00pm 11.4 8.0 3.9 60 3.3 WSW 11 17 6 9 1019.0 1019.0 0.0
29/05:30pm 12.1 8.3 3.9 57 3.7 WSW 13 20 7 11 1018.7 1018.7 0.0
29/05:00pm 13.3 8.3 3.7 52 4.3 WSW 19 30 10 16 1018.3 1018.3 0.0
29/04:30pm 13.9 8.7 3.4 49 4.7 WSW 20 39 11 21 1018.2 1018.2 0.0
29/04:00pm 13.7 7.7 3.2 49 4.7 WSW 24 35 13 19 1018.1 1018.1 0.0
29/03:30pm 15.0 9.4 3.5 46 5.2 W 22 33 12 18 1018.1 1018.1 0.0
29/03:00pm 14.6 8.1 2.5 44 5.4 W 26 39 14 21 1018.0 1018.0 0.0
29/02:30pm 14.9 8.8 2.8 44 5.4 WSW 24 39 13 21 1018.0 1018.0 0.0
29/02:00pm 15.4 10.0 2.6 42 5.7 WSW 20 32 11 17 1018.0 1018.0 0.0
29/01:30pm 14.8 8.1 1.7 41 5.7 W 26 43 14 23 1018.4 1018.4 0.0
29/01:00pm 15.0 8.6 0.8 38 6.1 W 24 39 13 21 1018.7 1018.7 0.0
29/12:30pm 14.6 7.3 0.1 37 6.1 W 28 46 15 25 1019.0 1019.0 0.0
29/12:29pm 14.5 7.1 -0.4 36 6.2 W 28 46 15 25 1019.0 1019.0 0.0
29/12:00pm 14.2 7.5 -1.4 34 6.3 W 24 33 13 18 1019.4 1019.4 0.0
29/11:30am 13.8 7.1 -1.0 36 6.0 W 24 37 13 20 1019.6 1019.6 0.0
29/11:00am 13.5 7.9 1.2 43 5.2 W 20 37 11 20 1020.3 1020.3 0.0
29/10:30am 12.5 6.5 0.9 45 4.9 W 22 39 12 21 1020.5 1020.5 0.0
29/10:00am 12.2 6.4 2.1 50 4.3 W 22 33 12 18 1020.9 1020.9 0.0
29/09:30am 11.5 7.7 1.5 50 4.2 W 11 26 6 14 1021.5 1021.5 0.0
29/09:00am 10.9 6.8 2.0 54 3.8 WNW 13 17 7 9 1021.7 1021.7 0.2
29/08:30am 9.8 4.8 1.2 55 3.5 W 17 26 9 14 1022.0 1022.0 0.2
29/08:00am 9.1 4.9 1.5 59 3.1 WNW 13 24 7 13 1022.2 1022.2 0.2
29/07:30am 7.4 5.3 4.0 79 1.5 NNW 4 9 2 5 1022.2 1022.2 0.2
29/07:00am 6.3 3.2 3.5 82 1.2 NW 9 11 5 6 1021.8 1021.8 0.2
29/06:30am 6.8 4.0 2.9 76 1.6 N 7 9 4 5 1021.8 1021.8 0.2
29/06:00am 7.1 4.2 2.6 73 1.9 W 7 11 4 6 1021.7 1021.7 0.2
29/05:30am 8.3 4.3 2.8 68 2.3 WSW 13 17 7 9 1021.7 1021.7 0.2
29/05:00am 8.3 4.1 3.8 73 1.9 WSW 15 20 8 11 1021.6 1021.6 0.2
29/04:30am 8.0 4.7 6.3 89 0.8 SSW 13 19 7 10 1021.7 1021.7 0.2
29/04:00am 7.9 7.1 6.4 90 0.7 CALM 0 0 0 0 1021.6 1021.6 0.2
29/03:30am 7.6 6.8 6.4 92 0.5 CALM 0 0 0 0 1021.5 1021.5 0.2
29/03:00am 7.8 7.0 6.4 91 0.6 CALM 0 0 0 0 1021.6 1021.6 0.2
29/02:30am 7.6 6.7 6.2 91 0.6 CALM 0 0 0 0 1021.9 1021.9 0.2
29/02:00am 7.7 5.5 6.3 91 0.6 SSW 7 11 4 6 1022.1 1022.1 0.2
29/01:30am 7.8 7.0 6.6 92 0.6 CALM 0 0 0 0 1022.4 1022.4 0.2
29/01:00am 7.8 5.8 6.3 90 0.7 SSW 6 7 3 4 1022.4 1022.4 0.2
29/12:30am 8.1 6.1 6.1 87 0.9 SSW 6 7 3 4 1022.4 1022.4 0.2
29/12:00am 8.8 6.6 6.4 85 1.1 SW 7 9 4 5 1022.5 1022.5 0.2
 
Date/Time
EST
Temp
°C
App
Temp
°C
Dew
Point
Rel
Hum
%
Delta-T
°C
Wind Press
QNH
hPa
Press
MSL
hPa
Rain
since 9 am
mm
Dir
 
Spd
km/h
Gust
km/h
Spd
kts
Gust
kts
28/11:30pm 9.4 6.4 6.1 80 1.5 W 11 15 6 8 1022.6 1022.6 0.2
28/11:00pm 9.6 6.6 6.0 78 1.6 WSW 11 15 6 8 1022.9 1022.9 0.2
28/10:30pm 9.9 6.5 6.1 77 1.8 WSW 13 20 7 11 1023.0 1023.0 0.2
28/10:00pm 9.9 7.4 6.6 80 1.5 WSW 9 15 5 8 1023.1 1023.1 0.2
28/09:30pm 10.0 7.6 6.9 81 1.5 SW 9 13 5 7 1023.3 1023.3 0.2
28/09:00pm 10.1 7.3 6.8 80 1.5 SW 11 15 6 8 1023.3 1023.3 0.2
28/08:30pm 10.0 7.5 6.7 80 1.5 W 9 15 5 8 1023.1 1023.1 0.2
28/08:00pm 10.1 8.1 7.0 81 1.5 W 7 11 4 6 1022.8 1022.8 0.2
28/07:30pm 10.3 7.2 7.2 81 1.5 SW 13 19 7 10 1022.7 1022.7 0.2
28/07:00pm 10.6 7.9 7.3 80 1.6 SW 11 19 6 10 1022.6 1022.6 0.2
28/06:30pm 10.7 8.9 7.9 83 1.4 SW 7 11 4 6 1022.3 1022.3 0.2
28/06:00pm 10.9 8.0 8.0 82 1.4 S 13 24 7 13 1022.1 1022.1 0.2
28/05:30pm 11.3 8.0 8.0 80 1.6 S 15 20 8 11 1021.5 1021.5 0.2
28/05:00pm 12.1 8.5 8.2 77 1.9 S 17 30 9 16 1021.0 1021.0 0.2
28/04:30pm 12.2 10.7 8.5 78 1.8 S 6 11 3 6 1020.7 1020.7 0.2
28/04:00pm 12.1 8.6 8.8 80 1.6 SSW 17 26 9 14 1020.6 1020.6 0.2
28/03:30pm 12.8 7.8 7.9 72 2.4 S 24 32 13 17 1020.2 1020.2 0.2
28/03:00pm 13.9 9.9 8.1 68 2.9 S 19 30 10 16 1019.9 1019.9 0.2
28/02:30pm 15.0 10.8 8.3 64 3.4 SSW 20 32 11 17 1019.6 1019.6 0.2
28/02:00pm 14.8 10.6 8.1 64 3.3 SW 20 37 11 20 1019.5 1019.5 0.2
28/01:30pm 13.6 8.5 7.6 67 2.9 SW 24 39 13 21 1019.6 1019.6 0.2
28/01:00pm 13.8 11.3 9.8 77 2.1 WSW 13 20 7 11 1019.6 1019.6 0.2
28/12:30pm 15.5 11.2 9.4 67 3.1 SSW 22 35 12 19 1019.5 1019.5 0.0
28/12:00pm 14.2 11.8 10.0 76 2.2 SW 13 20 7 11 1019.9 1019.9 0.0
28/11:30am 13.9 10.2 9.3 74 2.3 SW 19 33 10 18 1020.1 1020.1 0.0
28/11:00am 15.4 11.7 10.0 70 2.8 SW 20 33 11 18 1019.9 1019.9 0.0
28/10:30am 14.5 10.2 9.5 72 2.6 SSW 22 33 12 18 1019.5 1019.5 0.0
28/10:00am 13.2 9.6 9.8 80 1.7 SW 19 30 10 16 1019.5 1019.5 0.0
28/09:30am 14.2 10.5 10.2 77 2.1 SW 20 32 11 17 1019.1 1019.1 0.0
28/09:00am 13.4 11.0 10.2 81 1.7 SW 13 20 7 11 1018.9 1018.9 18.8
28/08:30am 12.4 8.8 9.8 84 1.3 SW 19 39 10 21 1018.7 1018.7 18.8
28/08:00am 12.8 10.2 9.4 80 1.7 SW 13 24 7 13 1018.2 1018.2 18.6
28/07:30am 12.0 8.9 9.0 82 1.5 SW 15 26 8 14 1017.9 1017.9 18.6
28/07:00am 11.9 7.9 8.9 82 1.5 SW 20 35 11 19 1017.2 1017.2 18.6
28/06:30am 11.8 8.3 8.6 81 1.6 SW 17 28 9 15 1016.7 1016.7 18.6
28/06:00am 11.5 8.8 9.1 85 1.2 SW 13 20 7 11 1016.1 1016.1 18.6
28/05:30am 11.2 8.6 9.5 89 0.9 WSW 13 24 7 13 1015.6 1015.6 18.6
28/05:00am 10.6 8.8 9.5 93 0.5 W 9 13 5 7 1015.3 1015.3 18.6
28/04:42am 10.5 7.9 9.4 93 0.5 WNW 13 19 7 10 1015.1 1015.1 18.0
28/04:30am 10.5 7.9 9.4 93 0.5 W 13 19 7 10 1015.1 1015.1 17.6
28/04:24am 10.5 7.9 9.3 92 0.6 W 13 19 7 10 1015.0 1015.0 17.4
28/04:16am 10.5 7.9 9.3 92 0.6 W 13 17 7 9 1014.9 1014.9 16.8
28/04:06am 10.5 7.9 9.3 92 0.6 W 13 20 7 11 1014.8 1014.8 16.6
28/04:00am 10.5 7.9 9.3 92 0.6 W 13 22 7 12 1014.7 1014.7 16.4
28/03:39am 10.4 7.0 9.0 91 0.7 W 17 24 9 13 1014.5 1014.5 15.4
28/03:30am 10.3 6.5 8.9 91 0.7 W 19 26 10 14 1014.4 1014.4 15.2
28/03:23am 10.4 7.0 9.0 91 0.7 W 17 24 9 13 1014.3 1014.3 14.6
28/03:00am 10.4 6.9 8.8 90 0.8 W 17 24 9 13 1014.5 1014.5 13.6
28/02:30am 10.5 7.0 8.8 89 0.8 W 17 24 9 13 1014.7 1014.7 12.2
28/02:00am 10.6 6.5 8.7 88 0.9 W 20 30 11 16 1014.9 1014.9 11.2
28/01:30am 10.8 6.9 8.7 87 1.0 W 19 28 10 15 1014.9 1014.9 10.6
28/01:00am 11.2 7.1 8.6 84 1.3 W 20 32 11 17 1015.3 1015.3 10.2
28/12:30am 11.6 7.6 8.1 79 1.7 W 19 26 10 14 1015.3 1015.3 9.8
28/12:00am 11.6 8.3 8.1 79 1.7 W 15 22 8 12 1015.6 1015.6 9.8
 
Date/Time
EST
Temp
°C
App
Temp
°C
Dew
Point
Rel
Hum
%
Delta-T
°C
Wind Press
QNH
hPa
Press
MSL
hPa
Rain
since 9 am
mm
Dir
 
Spd
km/h
Gust
km/h
Spd
kts
Gust
kts
27/11:30pm 11.5 9.0 8.4 81 1.5 W 11 15 6 8 1015.7 1015.7 9.8
27/11:00pm 11.5 8.3 8.4 81 1.5 WSW 15 24 8 13 1016.0 1016.0 9.8
27/10:30pm 11.1 8.0 8.7 85 1.2 WSW 15 22 8 12 1016.3 1016.3 9.8
27/10:00pm 10.6 8.4 9.4 92 0.6 WNW 11 17 6 9 1016.3 1016.3 9.8
27/09:30pm 11.1 9.4 10.0 93 0.6 WNW 9 13 5 7 1016.4 1016.4 9.8
27/09:00pm 11.0 9.3 9.8 92 0.6 WSW 9 13 5 7 1016.4 1016.4 9.8
27/08:30pm 11.5 11.7 10.6 94 0.5 CALM 0 0 0 0 1016.5 1016.5 9.8
27/08:00pm 11.6 11.8 10.5 93 0.6 CALM 0 0 0 0 1016.7 1016.7 9.8
27/07:30pm 11.6 11.7 10.3 92 0.7 CALM 0 0 0 0 1016.7 1016.7 9.4
27/07:00pm 11.9 9.9 10.3 90 0.8 SSW 11 15 6 8 1016.4 1016.4 8.4
27/06:30pm 12.2 9.8 9.9 86 1.2 WSW 13 22 7 12 1016.2 1016.2 7.0
27/06:00pm 12.8 10.4 10.2 84 1.3 SW 13 19 7 10 1015.6 1015.6 5.6
27/05:30pm 13.2 11.0 10.7 85 1.3 SSW 13 20 7 11 1015.2 1015.2 5.6
27/05:00pm 13.4 10.9 10.9 85 1.3 SSW 15 20 8 11 1014.6 1014.6 5.6
27/04:30pm 13.6 11.5 11.3 86 1.2 S 13 19 7 10 1014.6 1014.6 5.6
27/04:00pm 13.7 10.5 11.4 86 1.2 S 19 26 10 14 1014.5 1014.5 5.6
27/03:30pm 14.3 13.4 12.7 90 0.9 S 9 17 5 9 1014.7 1014.7 5.6
27/03:00pm 15.1 13.4 13.6 91 0.8 SSE 15 20 8 11 1014.3 1014.3 5.6
27/02:46pm 15.1 13.5 14.0 93 0.6 SSW 15 20 8 11 1014.3 1014.3 5.6
27/02:38pm 14.4 13.0 13.3 93 0.6 SSW 13 20 7 11 1014.6 1014.6 5.6
27/02:30pm 14.1 13.2 12.7 91 0.8 WSW 9 20 5 11 1014.7 1014.7 5.4
27/02:08pm 14.9 14.0 13.8 93 0.6 SE 11 17 6 9 1014.8 1014.8 1.8
27/02:06pm 14.8 13.9 13.7 93 0.6 SE 11 17 6 9 1014.8 1014.8 1.8
27/02:00pm 14.9 13.6 13.8 93 0.6 SE 13 15 7 8 1014.8 1014.8 1.8
27/01:30pm 14.9 14.6 13.3 90 0.9 SE 7 15 4 8 1014.9 1014.9 0.2
27/01:29pm 15.0 14.7 13.4 90 0.9 SE 7 15 4 8 1014.9 1014.9 0.2
27/01:26pm 15.0 14.0 13.4 90 0.9 SE 11 17 6 9 1014.9 1014.9 0.2
27/01:00pm 15.4 13.5 13.1 86 1.3 SE 15 20 8 11 1015.1 1015.1 0.2
27/12:30pm 16.5 14.0 13.6 83 1.6 SE 19 26 10 14 1015.5 1015.5 0.2
27/12:00pm 16.8 15.1 13.7 82 1.7 SE 15 20 8 11 1016.3 1016.3 0.2
27/11:30am 17.6 17.9 13.3 76 2.4 E 4 7 2 4 1016.8 1016.8 0.0
27/11:00am 17.4 17.9 13.9 80 2.0 ESE 4 13 2 7 1017.1 1017.1 0.0
27/10:30am 16.4 17.2 12.6 78 2.1 CALM 0 0 0 0 1017.7 1017.7 0.0
27/10:00am 15.6 15.1 12.5 82 1.7 W 7 13 4 7 1018.1 1018.1 0.0
27/09:30am 15.0 14.6 12.9 87 1.2 WSW 7 13 4 7 1018.5 1018.5 0.0
27/09:00am 14.4 12.7 12.3 87 1.1 W 13 17 7 9 1018.7 1018.7 12.2
27/08:40am 14.4 13.6 13.0 91 0.8 W 9 15 5 8 1019.0 1019.0 12.2
27/08:30am 13.9 12.9 12.3 90 0.9 WNW 9 13 5 7 1019.2 1019.2 12.2
27/08:00am 13.3 12.3 12.2 93 0.6 NW 9 13 5 7 1019.3 1019.3 12.2
27/07:30am 12.6 11.5 12.0 96 0.3 NW 9 11 5 6 1019.1 1019.1 12.2
27/07:15am 12.2 11.4 11.6 96 0.3 WNW 7 9 4 5 1019.1 1019.1 12.2
27/07:00am 11.8 11.0 11.0 95 0.4 W 6 9 3 5 1019.2 1019.2 12.2
27/06:43am 11.9 10.9 11.1 95 0.4 WNW 7 11 4 6 1019.2 1019.2 12.2

Other Formats:

Comma delimited format used in spreadsheet applications
http://www.bom.gov.au/fwo/IDN60801/IDN60801.95929.axf

JavaScript Object Notation format (JSON) in row-major order
http://www.bom.gov.au/fwo/IDN60801/IDN60801.95929.json